Time;durP1;ratioP1;P1;durP2;ratioP2;P2;SDS_P1;SDS_P2;PMS_P1;PMS_P2;Temp;Humidity;BMP_temperature;BMP_pressure;BME280_temperature;BME280_humidity;BME280_pressure;Samples;Min_cycle;Max_cycle;Signal;HPM_P1;HPM_P2
2020/12/11 00:00:09;;;;;;;12.60;6.20;;;;;;;-8.57;93.01;101616.80;1857536;77;21117;-58
2020/12/11 00:02:37;;;;;;;15.65;6.15;;;;;;;-8.58;93.04;101619.37;1849872;77;20973;-59
2020/12/11 00:05:05;;;;;;;11.05;5.33;;;;;;;-8.60;93.12;101606.77;1848012;77;21021;-58
2020/12/11 00:07:37;;;;;;;12.73;5.78;;;;;;;-8.61;93.17;101615.19;1850952;77;21438;-59
2020/12/11 00:10:09;;;;;;;12.40;6.08;;;;;;;-8.62;93.27;101621.11;1855577;77;21001;-58
2020/12/11 00:12:37;;;;;;;11.50;6.40;;;;;;;-8.64;93.32;101621.55;1849500;77;20927;-59
2020/12/11 00:15:07;;;;;;;10.75;5.67;;;;;;;-8.66;93.47;101604.34;1856197;77;20997;-59
2020/12/11 00:17:35;;;;;;;11.10;5.00;;;;;;;-8.66;93.50;101604.34;1847411;77;21148;-59
2020/12/11 00:20:05;;;;;;;11.35;6.55;;;;;;;-8.66;93.50;101603.51;1852200;77;21131;-59
2020/12/11 00:22:34;;;;;;;12.63;5.67;;;;;;;-8.69;93.63;101608.18;1850968;77;21108;-57
2020/12/11 00:25:02;;;;;;;11.00;5.45;;;;;;;-8.69;93.71;101608.18;1856988;77;21061;-57
2020/12/11 00:27:30;;;;;;;9.40;5.65;;;;;;;-8.70;93.81;101601.47;1849181;77;20991;-57
2020/12/11 00:29:58;;;;;;;9.23;5.03;;;;;;;-8.72;93.94;101608.23;1855245;77;20977;-58
2020/12/11 00:32:27;;;;;;;14.43;5.80;;;;;;;-8.72;94.15;101599.37;1852988;77;21133;-57
2020/12/11 00:34:55;;;;;;;13.55;6.42;;;;;;;-8.74;94.17;101603.64;1854669;77;21097;-58
2020/12/11 00:37:23;;;;;;;10.53;5.53;;;;;;;-8.75;94.30;101591.02;1852618;77;21002;-58
2020/12/11 00:39:51;;;;;;;14.53;6.78;;;;;;;-8.75;94.49;101583.03;1853103;77;21044;-59
2020/12/11 00:42:20;;;;;;;12.88;6.10;;;;;;;-8.76;94.63;101588.09;1852803;77;21015;-59
2020/12/11 00:44:48;;;;;;;15.90;6.95;;;;;;;-8.76;94.73;101585.14;1820159;77;21204;-57
2020/12/11 00:47:16;;;;;;;12.68;6.28;;;;;;;-8.78;94.75;101575.50;1855309;77;21021;-57
2020/12/11 00:49:44;;;;;;;12.93;5.53;;;;;;;-8.80;94.84;101570.89;1853978;77;20966;-59
2020/12/11 00:52:12;;;;;;;12.90;6.70;;;;;;;-8.82;94.96;101568.41;1856810;77;20965;-59
2020/12/11 00:54:42;;;;;;;13.58;6.28;;;;;;;-8.85;95.06;101571.41;1846911;77;21049;-59
2020/12/11 00:57:11;;;;;;;12.65;6.17;;;;;;;-8.87;95.17;101569.33;1856837;77;21253;-57
2020/12/11 00:59:39;;;;;;;11.63;6.42;;;;;;;-8.90;95.27;101561.39;1848822;77;20977;-58
2020/12/11 01:02:07;;;;;;;13.22;5.53;;;;;;;-8.93;95.37;101559.35;1820964;77;21188;-58
2020/12/11 01:04:36;;;;;;;11.15;5.20;;;;;;;-8.94;95.49;101548.81;1853115;77;21128;-58
2020/12/11 01:07:04;;;;;;;11.80;6.00;;;;;;;-8.94;95.56;101558.92;1851569;77;21148;-57
2020/12/11 01:09:32;;;;;;;11.22;5.83;;;;;;;-8.96;95.61;101556.88;1849903;77;21260;-57
2020/12/11 01:12:00;;;;;;;17.73;6.90;;;;;;;-8.97;95.72;101549.73;1853153;77;21037;-58
2020/12/11 01:14:28;;;;;;;12.13;6.45;;;;;;;-8.98;95.79;101561.10;1852747;77;20938;-58
2020/12/11 01:16:57;;;;;;;12.35;6.37;;;;;;;-9.00;95.87;101555.26;1854957;77;20976;-58
2020/12/11 01:19:25;;;;;;;12.10;5.90;;;;;;;-9.00;96.01;101562.84;1849927;77;20946;-56
2020/12/11 01:21:53;;;;;;;12.88;6.35;;;;;;;-9.03;96.01;101553.61;1855345;77;21304;-57
2020/12/11 01:24:21;;;;;;;10.18;5.37;;;;;;;-9.04;96.13;101556.17;1852655;77;21049;-57
2020/12/11 01:26:51;;;;;;;14.80;6.45;;;;;;;-9.06;96.16;101562.50;1852968;77;20958;-58
2020/12/11 01:29:19;;;;;;;11.68;5.72;;;;;;;-9.07;96.27;101548.21;1852905;77;21052;-58
2020/12/11 01:31:47;;;;;;;12.07;6.75;;;;;;;-9.08;96.32;101562.53;1854400;77;21077;-58
2020/12/11 01:34:16;;;;;;;13.68;6.65;;;;;;;-9.10;96.29;101548.25;1849162;77;21194;-57
2020/12/11 01:36:44;;;;;;;11.60;6.15;;;;;;;-9.13;96.35;101550.42;1851942;77;21168;-58
2020/12/11 01:39:12;;;;;;;11.08;6.08;;;;;;;-9.14;96.43;101551.27;1853215;77;21231;-57
2020/12/11 01:41:40;;;;;;;12.98;6.12;;;;;;;-9.16;96.54;101555.95;1854422;77;21017;-57
2020/12/11 01:44:12;;;;;;;12.47;6.17;;;;;;;-9.17;96.61;101546.25;1853576;77;20907;-57
2020/12/11 01:46:41;;;;;;;13.98;5.85;;;;;;;-9.18;96.62;101550.91;1851571;77;21278;-57
2020/12/11 01:49:11;;;;;;;11.35;5.67;;;;;;;-9.21;96.73;101554.75;1857041;77;21068;-57
2020/12/11 01:51:38;;;;;;;13.65;7.08;;;;;;;-9.21;96.91;101554.75;1854028;77;21483;-57
2020/12/11 01:54:07;;;;;;;14.55;6.20;;;;;;;-9.15;97.14;101549.60;1856403;77;21092;-58
2020/12/11 01:57:00;;;;;;;18.65;7.83;;;;;;;-9.06;97.07;101546.91;1850010;77;20957;-57
2020/12/11 01:59:42;;;;;;;14.33;6.55;;;;;;;-9.01;96.95;101546.02;1852292;77;21193;-57
2020/12/11 02:02:10;;;;;;;15.65;6.83;;;;;;;-8.95;96.83;101542.94;1850054;77;20993;-59
2020/12/11 02:04:38;;;;;;;11.33;5.72;;;;;;;-8.87;96.66;101536.48;1849304;77;21069;-58
2020/12/11 02:07:06;;;;;;;9.53;5.33;;;;;;;-8.81;96.39;101530.06;1846153;77;21156;-58
2020/12/11 02:09:35;;;;;;;12.43;5.65;;;;;;;-8.76;96.06;101527.01;1856381;77;20990;-58
2020/12/11 02:12:03;;;;;;;14.45;5.70;;;;;;;-8.73;95.85;101525.70;1846493;77;21253;-58
2020/12/11 02:14:32;;;;;;;11.60;6.83;;;;;;;-8.70;95.63;101533.22;1854982;77;21152;-58
2020/12/11 02:17:04;;;;;;;13.78;6.35;;;;;;;-8.68;95.45;101526.43;1850754;77;21073;-58
2020/12/11 02:19:33;;;;;;;15.72;6.10;;;;;;;-8.67;95.18;101515.48;1856146;77;21017;-57
2020/12/11 02:22:03;;;;;;;15.35;7.37;;;;;;;-8.66;95.09;101513.34;1850208;77;21101;-57
2020/12/11 02:24:35;;;;;;;13.55;5.30;;;;;;;-8.64;94.96;101525.50;1856962;77;21203;-57
2020/12/11 02:27:03;;;;;;;13.55;6.35;;;;;;;-8.62;94.79;101513.69;1846268;77;20989;-57
2020/12/11 02:29:31;;;;;;;11.83;5.53;;;;;;;-8.61;94.60;101533.47;1857116;77;20950;-57
2020/12/11 02:31:59;;;;;;;13.83;6.45;;;;;;;-8.64;94.36;101521.71;1851975;77;20966;-58
2020/12/11 02:34:28;;;;;;;12.05;6.25;;;;;;;-8.68;94.28;101542.86;1854622;77;21127;-57
2020/12/11 02:37:02;;;;;;;13.05;6.42;;;;;;;-8.73;94.32;101525.70;1855016;77;21192;-58
2020/12/11 02:39:30;;;;;;;15.78;6.55;;;;;;;-8.79;94.41;101523.27;1852185;77;21046;-57
2020/12/11 02:41:58;;;;;;;16.15;6.85;;;;;;;-8.83;94.63;101525.45;1829837;77;21096;-57
2020/12/11 02:44:27;;;;;;;15.38;7.33;;;;;;;-8.86;94.83;101523.84;1837190;77;21153;-57
2020/12/11 02:46:55;;;;;;;15.48;7.03;;;;;;;-8.91;94.98;101510.44;1834226;77;21112;-57
2020/12/11 02:49:23;;;;;;;14.47;5.90;;;;;;;-8.94;95.25;101519.77;1847028;77;21186;-57
2020/12/11 02:51:51;;;;;;;13.95;6.15;;;;;;;-8.98;95.56;101516.89;1833930;77;20974;-57
2020/12/11 02:54:20;;;;;;;14.40;6.28;;;;;;;-9.01;95.95;101520.33;1844136;77;21069;-58
2020/12/11 02:56:48;;;;;;;13.95;6.28;;;;;;;-9.02;96.13;101503.48;1830925;77;20954;-57
2020/12/11 02:59:16;;;;;;;16.82;7.78;;;;;;;-9.03;96.34;101506.05;1841995;77;21103;-57
2020/12/11 03:01:44;;;;;;;14.28;6.62;;;;;;;-9.04;96.62;101506.92;1836669;77;21193;-58
2020/12/11 03:04:12;;;;;;;13.03;6.10;;;;;;;-9.08;96.76;101501.92;1839872;77;21029;-57
2020/12/11 03:06:40;;;;;;;15.93;7.75;;;;;;;-9.09;97.03;101504.05;1816422;79;20891;-57
2020/12/11 03:09:09;;;;;;;12.45;6.72;;;;;;;-9.09;97.20;101507.84;1783385;80;20975;-57
2020/12/11 03:11:38;;;;;;;12.28;6.35;;;;;;;-9.10;97.45;101506.14;1769032;80;21054;-57
2020/12/11 03:14:06;;;;;;;15.90;6.67;;;;;;;-9.12;97.65;101506.62;1777332;79;21218;-57
2020/12/11 03:16:34;;;;;;;19.12;6.50;;;;;;;-9.14;98.03;101498.22;1777477;79;21187;-56
2020/12/11 03:19:02;;;;;;;10.75;5.67;;;;;;;-9.13;98.20;101491.48;1790836;78;21057;-57
2020/12/11 03:21:30;;;;;;;14.00;7.20;;;;;;;-9.15;98.41;101497.83;1776804;80;21003;-57
2020/12/11 03:23:58;;;;;;;18.25;7.70;;;;;;;-9.14;98.80;101489.82;1781184;80;21156;-57
2020/12/11 03:26:26;;;;;;;13.62;5.95;;;;;;;-9.13;99.07;101482.63;1754733;80;21202;-57
2020/12/11 03:28:54;;;;;;;14.47;6.70;;;;;;;-9.13;99.33;101486.02;1761738;80;21088;-57
2020/12/11 03:31:22;;;;;;;16.67;6.67;;;;;;;-9.12;99.46;101483.06;1766163;80;21208;-60
2020/12/11 03:33:51;;;;;;;14.50;6.58;;;;;;;-9.12;99.78;101475.48;1765961;80;21096;-57
2020/12/11 03:36:20;;;;;;;14.98;7.62;;;;;;;-9.13;99.98;101474.66;1766057;80;21100;-58
2020/12/11 03:38:49;;;;;;;17.87;7.50;;;;;;;-9.14;100.00;101484.33;1767285;80;21433;-57
2020/12/11 03:41:17;;;;;;;13.13;6.60;;;;;;;-9.15;100.00;101483.94;1775870;80;21026;-58
2020/12/11 03:43:45;;;;;;;17.20;7.85;;;;;;;-9.14;100.00;101485.59;1775467;80;21172;-57
2020/12/11 03:46:20;;;;;;;20.40;7.35;;;;;;;-9.14;100.00;101470.87;1781557;80;21176;-58
2020/12/11 03:48:50;;;;;;;18.12;7.20;;;;;;;-9.14;100.00;101471.70;1770127;80;21100;-57
2020/12/11 03:51:21;;;;;;;16.07;7.62;;;;;;;-9.11;100.00;101467.87;1770227;80;22199;-57
2020/12/11 03:53:49;;;;;;;15.72;6.42;;;;;;;-9.09;100.00;101471.22;1773504;80;20982;-57
2020/12/11 03:56:19;;;;;;;16.60;7.40;;;;;;;-9.06;100.00;101474.09;1810073;79;20966;-57
2020/12/11 03:58:47;;;;;;;15.85;6.95;;;;;;;-9.03;100.00;101466.89;1812817;79;21087;-58
2020/12/11 04:01:15;;;;;;;18.35;6.95;;;;;;;-9.04;100.00;101476.17;1782045;80;21131;-58
2020/12/11 04:03:43;;;;;;;15.63;6.95;;;;;;;-9.03;100.00;101470.69;1808549;78;21726;-58
2020/12/11 04:06:14;;;;;;;17.73;7.60;;;;;;;-9.03;100.00;101468.16;1788006;79;20950;-58
2020/12/11 04:08:43;;;;;;;16.52;8.35;;;;;;;-9.03;100.00;101473.21;1793614;79;21066;-58
2020/12/11 04:11:12;;;;;;;13.53;7.03;;;;;;;-9.04;100.00;101467.77;1782151;79;20942;-56
2020/12/11 04:13:41;;;;;;;18.17;9.00;;;;;;;-9.07;100.00;101465.69;1782956;79;21219;-57
2020/12/11 04:16:11;;;;;;;14.13;6.83;;;;;;;-9.07;100.00;101454.31;1779886;79;21206;-57
2020/12/11 04:18:41;;;;;;;19.15;6.92;;;;;;;-9.08;100.00;101458.98;1788660;79;21227;-57
2020/12/11 04:21:14;;;;;;;16.30;6.67;;;;;;;-9.09;100.00;101456.06;1790305;79;21116;-56
2020/12/11 04:23:43;;;;;;;16.50;6.92;;;;;;;-9.10;100.00;101461.12;1792148;79;21623;-56
2020/12/11 04:26:11;;;;;;;22.05;7.65;;;;;;;-9.12;100.00;101461.16;1785896;79;20962;-55
2020/12/11 04:28:39;;;;;;;15.93;6.97;;;;;;;-9.11;100.00;101467.04;1793446;79;21279;-55
2020/12/11 04:31:07;;;;;;;14.50;7.65;;;;;;;-9.14;100.00;101470.44;1791036;79;21128;-55
2020/12/11 04:33:35;;;;;;;21.50;7.60;;;;;;;-9.16;100.00;101468.39;1791723;79;21148;-55
2020/12/11 04:36:04;;;;;;;14.55;7.85;;;;;;;-9.15;100.00;101453.63;1807877;79;21149;-55
2020/12/11 04:38:32;;;;;;;16.75;6.92;;;;;;;-9.15;100.00;101456.59;1786015;80;20950;-56
2020/12/11 04:41:01;;;;;;;17.80;8.65;;;;;;;-9.17;100.00;101462.92;1799065;79;21198;-57
2020/12/11 04:43:29;;;;;;;17.57;7.50;;;;;;;-9.19;100.00;101459.60;1786014;80;21109;-54
2020/12/11 04:45:57;;;;;;;18.92;7.75;;;;;;;-9.18;100.00;101456.64;1803422;78;21101;-56
2020/12/11 04:48:26;;;;;;;13.45;6.37;;;;;;;-9.18;100.00;101461.26;1769952;80;21014;-57
2020/12/11 04:50:56;;;;;;;13.70;7.30;;;;;;;-9.19;100.00;101459.60;1745778;79;21085;-55
2020/12/11 04:53:25;;;;;;;19.07;6.97;;;;;;;-9.20;100.00;101461.73;1771275;80;21219;-56
2020/12/11 04:55:54;;;;;;;13.50;6.58;;;;;;;-9.20;100.00;101469.75;1796277;79;21152;-57
2020/12/11 04:58:22;;;;;;;18.90;8.40;;;;;;;-9.20;100.00;101459.20;1751667;80;21082;-56
2020/12/11 05:00:50;;;;;;;13.10;6.80;;;;;;;-9.20;100.00;101457.95;1756282;80;20934;-57
2020/12/11 05:03:18;;;;;;;15.23;7.05;;;;;;;-9.20;100.00;101463.44;1736971;80;21395;-57
2020/12/11 05:05:46;;;;;;;17.82;6.83;;;;;;;-9.19;100.00;101462.12;1783329;80;21217;-56
2020/12/11 05:08:21;;;;;;;19.10;7.70;;;;;;;-9.21;100.00;101465.09;1783733;80;21006;-55
2020/12/11 05:10:50;;;;;;;15.03;6.83;;;;;;;-9.21;100.00;101463.00;1792121;79;21073;-55
2020/12/11 05:13:23;;;;;;;13.80;7.17;;;;;;;-9.20;100.00;101476.89;1789314;79;20983;-55
2020/12/11 05:16:13;;;;;;;17.87;7.00;;;;;;;-9.20;100.00;101478.15;1787652;80;21621;-54
2020/12/11 05:18:41;;;;;;;14.35;5.90;;;;;;;-9.17;100.00;101470.49;1796771;79;21377;-55
2020/12/11 05:21:22;;;;;;;13.32;7.05;;;;;;;-9.14;100.00;101472.97;1765925;80;21069;-55
2020/12/11 05:24:04;;;;;;;18.90;8.15;;;;;;;-9.14;100.00;101472.97;1792383;79;21107;-57
2020/12/11 05:26:35;;;;;;;14.47;7.10;;;;;;;-9.12;100.00;101481.36;1783685;80;20986;-59
2020/12/11 05:29:03;;;;;;;18.75;7.47;;;;;;;-9.10;100.00;101478.36;1771113;79;21180;-58
2020/12/11 05:31:32;;;;;;;19.50;7.55;;;;;;;-9.06;100.00;101485.02;1777883;80;21232;-57
2020/12/11 05:34:11;;;;;;;14.43;5.85;;;;;;;-8.98;100.00;101486.14;1787395;79;21593;-58
2020/12/11 05:36:54;;;;;;;19.48;8.03;;;;;;;-8.84;100.00;101482.11;1755615;80;21125;-57
2020/12/11 05:39:31;;;;;;;17.75;8.18;;;;;;;-8.70;100.00;101471.30;1797530;79;21124;-56
2020/12/11 05:42:03;;;;;;;15.75;6.67;;;;;;;-8.58;100.00;101468.52;1794383;79;21183;-56
2020/12/11 05:44:34;;;;;;;15.93;7.87;;;;;;;-8.42;100.00;101466.50;1766225;80;21155;-58
2020/12/11 05:47:24;;;;;;;16.45;7.42;;;;;;;-8.22;100.00;101470.27;1761501;80;21140;-57
2020/12/11 05:49:53;;;;;;;12.63;6.05;;;;;;;-7.99;100.00;101471.88;1795820;79;21164;-57
2020/12/11 05:52:24;;;;;;;14.90;7.17;;;;;;;-7.74;100.00;101469.58;1791270;79;21132;-58
2020/12/11 05:54:54;;;;;;;17.85;7.67;;;;;;;-7.54;100.00;101465.73;1779625;79;21364;-58
2020/12/11 05:57:22;;;;;;;14.03;8.08;;;;;;;-7.38;99.65;101460.27;1789925;79;21291;-58
2020/12/11 05:59:52;;;;;;;14.38;7.22;;;;;;;-7.20;98.74;101469.51;1793377;79;21195;-59
2020/12/11 06:02:20;;;;;;;16.85;7.22;;;;;;;-7.02;97.84;101474.53;1767740;79;21451;-58
2020/12/11 06:04:49;;;;;;;17.40;8.55;;;;;;;-6.84;96.66;101472.78;1788854;79;21163;-58
2020/12/11 06:07:17;;;;;;;23.52;12.05;;;;;;;-6.65;95.58;101470.13;1752697;80;21085;-58
2020/12/11 06:09:45;;;;;;;20.65;7.85;;;;;;;-6.45;94.33;101483.49;1771453;80;21258;-58
2020/12/11 06:12:13;;;;;;;16.00;7.85;;;;;;;-6.29;93.10;101469.91;1785776;80;21065;-59
2020/12/11 06:15:06;;;;;;;13.13;7.40;;;;;;;-6.11;92.00;101467.27;1786202;79;21021;-58
2020/12/11 06:17:40;;;;;;;13.27;6.80;;;;;;;-5.92;91.18;101474.68;1743593;82;21169;-57
2020/12/11 06:20:09;;;;;;;13.62;7.03;;;;;;;-5.68;89.68;101460.84;1757868;81;21109;-59
2020/12/11 06:22:37;;;;;;;15.13;7.47;;;;;;;-5.49;88.22;101463.17;1784003;79;21375;-57
2020/12/11 06:25:26;;;;;;;17.65;8.15;;;;;;;-5.34;87.27;101465.64;1777732;80;21144;-57
2020/12/11 06:27:56;;;;;;;13.03;7.05;;;;;;;-5.19;85.84;101476.56;1816477;79;21167;-57
2020/12/11 06:30:27;;;;;;;14.30;7.87;;;;;;;-4.97;85.09;101469.44;1778578;80;21176;-58
2020/12/11 06:32:56;;;;;;;17.27;8.50;;;;;;;-4.75;83.48;101452.98;1806042;79;20978;-57
2020/12/11 06:35:25;;;;;;;15.98;8.10;;;;;;;-4.59;82.33;101455.79;1775872;80;21291;-57
2020/12/11 06:37:53;;;;;;;12.37;6.78;;;;;;;-4.45;80.90;101453.57;1770757;79;21211;-54
2020/12/11 06:40:50;;;;;;;15.45;7.22;;;;;;;-4.36;79.88;101448.56;1772129;80;21547;-57
2020/12/11 06:46:40;;;;;;;15.43;8.03;;;;;;;-3.98;77.98;101447.94;1798435;79;22908;-59
2020/12/11 06:49:17;;;;;;;13.88;7.15;;;;;;;-3.91;76.85;101451.05;1754940;81;20972;-58
2020/12/11 06:51:51;;;;;;;13.00;7.95;;;;;;;-3.79;76.28;101456.09;1747620;81;21206;-58
2020/12/11 06:54:27;;;;;;;15.23;8.10;;;;;;;-3.73;74.95;101454.14;1741443;81;20944;-58
2020/12/11 06:56:57;;;;;;;14.07;7.45;;;;;;;-3.67;74.88;101446.27;1745729;81;21010;-57
2020/12/11 06:59:39;;;;;;;13.88;7.30;;;;;;;-3.49;74.29;101446.38;1757199;80;20999;-58
2020/12/11 07:02:17;;;;;;;21.33;10.78;;;;;;;-3.39;73.55;101450.22;1754079;81;20939;-59
2020/12/11 07:04:48;;;;;;;14.43;7.67;;;;;;;-3.26;72.90;101445.41;1753146;81;21220;-58
2020/12/11 07:07:23;;;;;;;13.35;7.47;;;;;;;-3.16;72.14;101444.14;1754791;81;20969;-58
2020/12/11 07:09:51;;;;;;;22.25;7.97;;;;;;;-3.04;71.43;101452.98;1750995;81;20978;-59
2020/12/11 07:12:20;;;;;;;15.05;7.55;;;;;;;-3.02;70.79;101438.00;1755539;81;21115;-57
2020/12/11 07:14:48;;;;;;;15.00;8.08;;;;;;;-2.95;70.63;101432.19;1749118;81;20967;-58
2020/12/11 07:17:25;;;;;;;16.05;7.33;;;;;;;-2.85;70.02;101427.05;1753471;81;21320;-58
2020/12/11 07:19:54;;;;;;;12.07;6.80;;;;;;;-2.79;69.77;101424.23;1757262;81;21031;-57
2020/12/11 07:22:22;;;;;;;14.50;8.43;;;;;;;-2.69;69.33;101433.56;1757234;81;21048;-58
2020/12/11 07:24:50;;;;;;;16.40;8.38;;;;;;;-2.72;68.89;101424.34;1755580;81;21071;-58
2020/12/11 07:27:20;;;;;;;12.43;7.55;;;;;;;-2.71;69.11;101440.47;1755932;81;21488;-58
2020/12/11 07:29:49;;;;;;;12.58;7.22;;;;;;;-2.67;69.11;101421.58;1751816;81;21284;-58
2020/12/11 07:32:21;;;;;;;15.20;8.08;;;;;;;-2.60;68.91;101438.72;1751299;81;21046;-58
2020/12/11 07:34:50;;;;;;;15.80;8.00;;;;;;;-2.63;69.01;101414.61;1722640;83;21093;-57
2020/12/11 07:37:19;;;;;;;22.13;10.98;;;;;;;-2.60;68.97;101419.58;1683685;84;21121;-58
2020/12/11 07:39:47;;;;;;;29.40;13.40;;;;;;;-2.57;69.30;101416.89;1697804;83;21192;-58
2020/12/11 07:42:24;;;;;;;25.60;12.43;;;;;;;-2.54;69.31;101423.11;1698828;83;21548;-58
2020/12/11 07:44:52;;;;;;;19.77;11.65;;;;;;;-2.47;69.66;101409.99;1693312;83;21235;-58
2020/12/11 07:47:20;;;;;;;24.25;12.13;;;;;;;-2.42;69.28;101405.12;1741666;81;21071;-58
2020/12/11 07:49:49;;;;;;;19.73;10.55;;;;;;;-2.52;69.27;101408.56;1740941;82;21115;-57
2020/12/11 07:54:56;;;;;;;15.37;8.30;;;;;;;-2.76;70.60;101414.34;1861178;74;22566;-58
2020/12/11 07:57:25;;;;;;;17.07;7.97;;;;;;;-2.80;71.30;101406.45;1842086;75;20946;-58
2020/12/11 08:00:06;;;;;;;14.63;8.65;;;;;;;-2.76;71.78;101406.23;1825534;77;21195;-57
2020/12/11 08:02:35;;;;;;;17.87;9.13;;;;;;;-2.66;72.13;101404.53;1820916;77;20963;-57
2020/12/11 08:05:06;;;;;;;15.40;7.87;;;;;;;-2.59;71.81;101422.50;1831628;77;21032;-58
2020/12/11 08:07:34;;;;;;;;;;;;;;;-2.60;71.84;101402.98;1829376;78;21531;-57
2020/12/11 08:10:12;;;;;;;18.60;10.28;;;;;;;-2.57;71.95;101407.50;1826944;78;20156;-58
2020/12/11 08:12:41;;;;;;;16.45;9.25;;;;;;;-2.51;72.12;101398.27;1822260;78;22338;-57
2020/12/11 08:15:09;;;;;;;13.05;7.70;;;;;;;-2.41;72.33;101410.17;1828387;78;21618;-58
2020/12/11 08:17:41;;;;;;;12.43;7.28;;;;;;;-2.32;72.29;101408.45;1809091;77;20919;-58
2020/12/11 08:20:10;;;;;;;13.58;7.55;;;;;;;-2.21;72.17;101396.46;1815973;78;21156;-56
2020/12/11 08:22:40;;;;;;;15.20;9.03;;;;;;;-2.12;71.99;101404.13;1821209;78;21022;-56
2020/12/11 08:25:20;;;;;;;11.78;7.30;;;;;;;-2.15;71.81;101400.47;1824919;78;21249;-56
2020/12/11 08:27:48;;;;;;;16.23;7.62;;;;;;;-2.24;72.15;101396.59;1824011;77;21117;-57
2020/12/11 08:30:18;;;;;;;14.00;6.72;;;;;;;-2.43;72.84;101391.53;1815071;78;21037;-56
2020/12/11 08:32:47;;;;;;;21.05;8.38;;;;;;;-2.64;73.84;101392.54;1833385;76;21101;-56
2020/12/11 08:35:21;;;;;;;16.20;7.97;;;;;;;-2.82;74.96;101386.54;1825481;78;21150;-57
2020/12/11 08:37:57;;;;;;;11.95;6.62;;;;;;;-2.98;76.23;101382.58;1803599;78;21338;-57
2020/12/11 08:40:26;;;;;;;15.48;8.00;;;;;;;-3.12;77.48;101393.83;1817289;78;20966;-57
2020/12/11 08:50:47;;;;;;;12.68;5.80;;;;;;;-3.51;83.33;101394.66;1781909;80;21031;-56
2020/12/11 08:53:16;;;;;;;14.25;7.35;;;;;;;-3.56;85.14;101391.03;1782927;80;21191;-57
2020/12/11 08:55:44;;;;;;;12.07;6.15;;;;;;;-3.60;86.89;101388.66;1782241;80;21062;-56
2020/12/11 08:58:13;;;;;;;13.30;6.28;;;;;;;-3.62;87.85;101405.30;1782174;80;20978;-57
2020/12/11 09:00:41;;;;;;;12.88;7.30;;;;;;;-3.63;88.56;101399.00;1771708;79;21013;-57
2020/12/11 09:11:01;;;;;;;19.77;10.20;;;;;;;-3.65;89.90;101391.41;1793438;78;22766;-56
2020/12/11 09:13:29;;;;;;;25.12;11.85;;;;;;;-3.78;90.09;101396.64;1782851;80;20931;-56
2020/12/11 09:15:57;;;;;;;18.52;8.68;;;;;;;-3.86;90.45;101393.13;1722943;81;21218;-57
2020/12/11 09:18:25;;;;;;;14.13;6.67;;;;;;;-3.92;91.19;101397.19;1715155;81;21038;-57
2020/12/11 09:20:54;;;;;;;15.05;7.50;;;;;;;-3.96;92.25;101403.30;1718513;82;21074;-56
2020/12/11 09:23:24;;;;;;;16.05;8.68;;;;;;;-4.02;93.20;101392.07;1741669;81;21007;-56
2020/12/11 09:25:52;;;;;;;28.00;10.60;;;;;;;-4.04;93.68;101391.32;1725138;82;20986;-55
2020/12/11 09:28:21;;;;;;;14.53;8.43;;;;;;;-4.04;94.26;101418.06;1719337;81;21399;-56
2020/12/11 09:30:50;;;;;;;12.58;7.45;;;;;;;-4.02;94.58;101390.80;1714146;83;20999;-56
2020/12/11 09:33:26;;;;;;;14.58;8.28;;;;;;;-4.00;94.92;101401.31;1721852;81;20975;-57
2020/12/11 09:35:52;;;;;;;14.55;7.25;;;;;;;-4.00;95.17;101384.77;1730899;81;21041;-56
2020/12/11 09:38:20;;;;;;;20.85;8.83;;;;;;;-3.97;95.62;101394.01;1752580;81;21129;-56
2020/12/11 09:40:54;;;;;;;21.65;8.78;;;;;;;-3.96;95.94;101380.38;1689452;81;21057;-55
2020/12/11 09:51:36;;;;;;;16.00;10.43;;;;;;;-3.86;96.55;101370.62;1824251;76;27873;-57
2020/12/11 09:56:26;;;;;;;15.90;9.20;;;;;;;-3.74;96.90;101354.85;1882187;75;22722;-57
2020/12/11 10:04:02;;;;;;;18.20;9.28;;;;;;;-3.68;97.14;101374.51;1765776;77;20915;-56
2020/12/11 10:06:30;;;;;;;18.75;9.40;;;;;;;-3.68;97.02;101350.30;1821325;78;21190;-57
2020/12/11 10:08:58;;;;;;;14.83;7.90;;;;;;;-3.67;97.01;101340.52;1824393;77;21021;-55
2020/12/11 10:11:26;;;;;;;16.12;8.63;;;;;;;-3.64;97.26;101327.24;1751662;80;21627;-55
2020/12/11 10:14:11;;;;;;;18.25;8.95;;;;;;;-3.61;97.37;101327.95;1797455;79;21044;-57
2020/12/11 10:16:24;;;;;;;13.40;8.08;;;;;;;-3.59;97.23;101339.36;1773563;80;21041;-55
2020/12/11 10:18:53;;;;;;;15.32;9.08;;;;;;;-3.60;97.26;101323.67;1788024;79;21218;-56
2020/12/11 10:21:21;;;;;;;23.45;12.45;;;;;;;-3.59;97.40;101313.88;1783846;79;20943;-56
2020/12/11 10:27:03;;;;;;;18.43;9.13;;;;;;;-3.49;97.52;101323.58;1764026;79;22301;-56
2020/12/11 10:29:31;;;;;;;19.90;10.63;;;;;;;-3.52;97.83;101320.38;1720347;81;20989;-55
2020/12/11 10:31:59;;;;;;;20.40;10.90;;;;;;;-3.52;97.93;101323.75;1716287;83;21173;-55
2020/12/11 10:34:28;;;;;;;18.15;9.50;;;;;;;-3.55;98.20;101316.22;1715693;83;21030;-55
2020/12/11 10:36:56;;;;;;;16.85;10.10;;;;;;;-3.56;98.32;101328.59;1717940;83;21058;-56
2020/12/11 10:39:24;;;;;;;18.50;7.75;;;;;;;-3.55;98.37;101311.13;1716041;83;21042;-57
2020/12/11 10:41:52;;;;;;;18.32;9.53;;;;;;;-3.54;98.50;101315.77;1719096;83;21006;-56
2020/12/11 10:44:20;;;;;;;20.25;10.45;;;;;;;-3.54;98.37;101319.14;1714685;83;21283;-56
2020/12/11 10:46:49;;;;;;;27.55;14.38;;;;;;;-3.55;98.52;101307.30;1718736;83;21042;-56
2020/12/11 10:49:18;;;;;;;23.47;12.95;;;;;;;-3.53;98.53;101291.48;1718096;82;21049;-57
2020/12/11 10:51:47;;;;;;;16.95;9.83;;;;;;;-3.50;98.60;101287.98;1718867;83;21003;-53
2020/12/11 10:54:17;;;;;;;20.05;10.85;;;;;;;-3.50;98.41;101291.35;1708254;83;20996;-53
2020/12/11 10:56:45;;;;;;;16.23;9.53;;;;;;;-3.52;98.59;101294.88;1717440;83;21212;-56
2020/12/11 10:59:13;;;;;;;16.77;8.38;;;;;;;-3.51;98.75;101273.14;1716836;83;21003;-54
2020/12/11 11:01:42;;;;;;;17.75;8.80;;;;;;;-3.50;98.90;101276.06;1717685;83;21014;-56
2020/12/11 11:04:11;;;;;;;13.98;7.50;;;;;;;-3.48;99.12;101269.19;1712566;81;21128;-53
2020/12/11 11:06:47;;;;;;;16.82;9.35;;;;;;;-3.45;99.24;101268.20;1713859;83;21168;-54
2020/12/11 11:12:00;;;;;;;15.55;8.88;;;;;;;-3.37;99.58;101260.21;1692415;83;21136;-56
2020/12/11 11:20:02;;;;;;;16.00;8.73;;;;;;;-3.25;99.45;101263.05;1821784;77;21017;-56
2020/12/11 11:30:34;;;;;;;20.70;11.23;;;;;;;-3.16;99.69;101245.23;1831223;76;23155;-56
2020/12/11 11:33:02;;;;;;;14.07;8.35;;;;;;;-3.15;99.76;101242.22;1783329;77;20911;-57
2020/12/11 11:35:30;;;;;;;14.07;6.85;;;;;;;-3.12;99.84;101257.39;1773860;79;21282;-57
2020/12/11 11:37:59;;;;;;;16.65;8.00;;;;;;;-3.08;99.91;101238.50;1779825;80;21028;-55
2020/12/11 11:40:27;;;;;;;16.42;8.18;;;;;;;-3.05;99.96;101244.28;1761325;80;21090;-55
2020/12/11 11:42:55;;;;;;;14.90;9.00;;;;;;;-2.98;100.00;101232.90;1778391;80;21511;-57
2020/12/11 11:45:26;;;;;;;28.23;13.43;;;;;;;-2.91;99.93;101232.63;1771987;79;20951;-58
2020/12/11 11:51:40;;;;;;;17.23;8.77;;;;;;;-2.74;99.35;101256.87;1801407;77;22787;-58
2020/12/11 11:53:56;;;;;;;20.20;11.30;;;;;;;-2.74;99.14;101237.73;1749993;80;21499;-56
2020/12/11 11:56:24;;;;;;;18.10;9.35;;;;;;;-2.72;99.03;101249.53;1734688;80;21215;-57
2020/12/11 11:58:53;;;;;;;16.60;8.73;;;;;;;-2.68;98.93;101220.04;1746867;80;21622;-55
2020/12/11 12:01:21;;;;;;;22.45;11.85;;;;;;;-2.62;98.89;101228.20;1746859;80;21050;-57
2020/12/11 12:03:50;;;;;;;27.95;13.68;;;;;;;-2.56;98.67;101221.98;1752325;80;21526;-56
2020/12/11 12:06:23;;;;;;;17.67;9.33;;;;;;;-2.51;98.49;101214.92;1754266;80;21014;-56
2020/12/11 12:08:51;;;;;;;14.63;7.37;;;;;;;-2.46;98.21;101220.19;1755051;80;21199;-57
2020/12/11 12:11:19;;;;;;;12.20;7.45;;;;;;;-2.41;97.89;101196.98;1721199;81;21125;-54
2020/12/11 12:13:48;;;;;;;15.28;8.13;;;;;;;-2.38;97.62;101198.11;1687278;84;21028;-57
2020/12/11 12:16:17;;;;;;;15.28;7.58;;;;;;;-2.33;97.40;101198.69;1711937;83;21106;-57
2020/12/11 12:18:49;;;;;;;12.78;7.28;;;;;;;-2.27;97.21;101202.68;1719683;83;21106;-57
2020/12/11 12:27:21;;;;;;;16.77;10.13;;;;;;;-2.13;96.44;101190.47;1882050;75;22774;-58
2020/12/11 12:29:14;;;;;;;15.38;9.28;;;;;;;-2.13;96.04;101199.41;1819757;77;21728;-57
2020/12/11 12:31:44;;;;;;;14.58;7.85;;;;;;;-2.15;95.96;101194.39;1826111;77;21037;-58